Terminal Aerodrome Forecast
Issued by NWS

Home | Current Version | Previous Version | Text Only | Print | Product List | Glossary On
Versions: 1 2 3 4 5 6 7 8 9 10 11 12 13 14 15
000
FTUS43 KDLH 021700
TAFBRD
TAF
KBRD 021733Z 0218/0318 17013G22KT P6SM VCSH FEW060 BKN150
     FM030600 17009KT P6SM VCSH SCT015 OVC030 PROB30 0306/0310 5SM
      TSRA BKN015CB
     FM031000 17007KT P6SM VCTS BKN010CB PROB30 0312/0315 4SM TSRA
      OVC004CB=

USA.gov is the U.S. government's official web portal to all federal, state and local government web resources and services.